RJAW

Details ICAO RJAW (IWO)
Name IWO JIMA
Region Japan
Timezone Asia/Tokyo (UTC+9.0)
Plans Departing 44
Arriving 35
Stats Elevation 384 ft / 117 m (AMSL)
Location 24.783986° 141.322722°
Runways 1
Magnetic Variation 3.599° W
Sunrise 2018-05-26 19:47:57 UTC / 2018-05-27 04:47:57 Local
Sunset 2018-05-27 09:18:34 UTC / 2018-05-27 18:18:34 Local
Advertisement - Login to hide

Runways

ID Width Length Bearing (true) Bearing (mag) Surface Threshold Offset Overrun Length
07 200 ft / 61 m 8,676 ft / 2,645 m 67.97° 71.57° Asphalt 0 ft / 0 m 550 ft / 168 m
25 200 ft / 61 m 8,676 ft / 2,645 m 247.98° 251.58° Asphalt 0 ft / 0 m 550 ft / 168 m

Map

Weather


0- 5 10 15 20 25 30 35+ Temperature / ° C

Clouds and Precipitation
Forecast for 2018-05-27 00:00 UTC. Updated 5 hours ago

Ground ~20,000 ft ~40,000 ft Winds

METAR

RJAW 270300Z 27013KT 9999 FEW015 BKN230 29/26 Q1009 RMK 2CU015 A2982

TAF

Not found

Frequencies

Tower 133.40 MHz TWR
Tower 126.20 MHz TWR
Warning: Do not use this data for real-world aviation or navigation. No guarantee of current accuracy is given.